Time;durP1;ratioP1;P1;durP2;ratioP2;P2;SDS_P1;SDS_P2;PMS_P1;PMS_P2;Temp;Humidity;BMP_temperature;BMP_pressure;BME280_temperature;BME280_humidity;BME280_pressure;Samples;Min_cycle;Max_cycle;Signal;HPM_P1;HPM_P2
2022/08/31 00:06:15;;;;;;;;;;;;;;;18.96;100.00;100985.34;12859571;23;19991;-70
2022/08/31 00:11:26;;;;;;;;;;;;;;;18.91;100.00;100984.63;12871938;23;19998;-74
2022/08/31 00:16:31;;;;;;;;;;;;;;;18.88;100.00;100983.88;12862124;23;19919;-73
2022/08/31 00:21:37;;;;;;;;;;;;;;;18.80;100.00;100988.50;12866862;23;20003;-73
2022/08/31 00:26:41;;;;;;;;;;;;;;;18.71;100.00;100992.31;12865586;23;20279;-74
2022/08/31 00:31:46;;;;;;;;;;;;;;;18.69;100.00;100993.28;12865987;23;19952;-72
2022/08/31 00:36:50;;;;;;;;;;;;;;;18.61;100.00;100990.03;12869540;23;19920;-68
2022/08/31 00:41:53;;;;;;;;;;;;;;;18.56;100.00;100992.81;12872652;23;20391;-69
2022/08/31 00:46:58;;;;;;;;;;;;;;;18.56;100.00;100998.09;12872513;23;20260;-70
2022/08/31 00:52:04;;;;;;;;;;;;;;;18.57;100.00;101001.59;12872475;23;20351;-70
2022/08/31 00:57:08;;;;;;;;;;;;;;;18.42;100.00;101013.44;12885856;23;20018;-71
2022/08/31 01:02:11;;;;;;;;;;;;;;;18.48;100.00;101000.13;12872516;23;19983;-69
2022/08/31 01:07:15;;;;;;;;;;;;;;;18.37;100.00;101002.19;12872472;23;19995;-72
2022/08/31 01:12:18;;;;;;;;;;;;;;;18.41;100.00;101004.69;12872587;23;20375;-71
2022/08/31 01:17:21;;;;;;;;;;;;;;;18.40;100.00;101002.97;12872236;23;20287;-72
2022/08/31 01:22:28;;;;;;;;;;;;;;;18.33;100.00;101011.94;12872336;23;19944;-70
2022/08/31 01:27:34;;;;;;;;;;;;;;;18.40;100.00;101002.97;12879154;23;19959;-71
2022/08/31 01:32:38;;;;;;;;;;;;;;;18.27;100.00;101009.47;12882546;23;20354;-71
2022/08/31 01:37:41;;;;;;;;;;;;;;;18.24;100.00;101006.13;12869258;23;19996;-73
2022/08/31 01:42:46;;;;;;;;;;;;;;;18.23;100.00;100996.50;12869369;23;20053;-72
2022/08/31 01:47:48;;;;;;;;;;;;;;;18.30;100.00;101001.53;12868491;23;19939;-71
2022/08/31 01:52:52;;;;;;;;;;;;;;;18.18;100.00;100996.66;12868587;23;19952;-74
2022/08/31 01:57:57;;;;;;;;;;;;;;;18.19;100.00;100994.84;12868338;23;20284;-70
2022/08/31 02:03:01;;;;;;;;;;;;;;;18.25;100.00;101006.06;12882165;23;20322;-70
2022/08/31 02:08:05;;;;;;;;;;;;;;;18.27;100.00;100996.34;12868213;23;19987;-69
2022/08/31 02:13:10;;;;;;;;;;;;;;;18.17;100.00;100999.31;12868667;23;19950;-71
2022/08/31 02:18:13;;;;;;;;;;;;;;;18.22;100.00;100998.25;12867596;23;20219;-73
2022/08/31 02:23:16;;;;;;;;;;;;;;;18.17;100.00;100996.69;12867611;23;19947;-70
2022/08/31 02:28:21;;;;;;;;;;;;;;;18.11;100.00;100989.84;12867730;23;20266;-68
2022/08/31 02:33:24;;;;;;;;;;;;;;;18.11;100.00;100986.34;12867534;23;19939;-68
2022/08/31 02:38:27;;;;;;;;;;;;;;;18.08;100.00;100989.97;12867557;23;19995;-70
2022/08/31 02:43:32;;;;;;;;;;;;;;;18.08;100.00;100992.59;12867390;23;20274;-73
2022/08/31 02:48:35;;;;;;;;;;;;;;;18.08;100.00;100987.34;12867359;23;19999;-72
2022/08/31 02:53:38;;;;;;;;;;;;;;;18.03;100.00;100988.38;12867349;23;19954;-70
2022/08/31 02:58:42;;;;;;;;;;;;;;;18.02;100.00;100989.25;12867182;23;19998;-71
2022/08/31 03:03:46;;;;;;;;;;;;;;;17.94;100.00;100996.53;12867645;23;20367;-71
2022/08/31 03:08:50;;;;;;;;;;;;;;;17.98;100.00;100988.50;12867610;23;19982;-70
2022/08/31 03:13:55;;;;;;;;;;;;;;;18.03;100.00;100991.00;12866944;23;19943;-75
2022/08/31 03:19:00;;;;;;;;;;;;;;;18.03;100.00;100991.00;12881001;23;20329;-72
2022/08/31 03:24:03;;;;;;;;;;;;;;;18.05;100.00;100992.66;12866898;23;19944;-70
2022/08/31 03:29:08;;;;;;;;;;;;;;;18.05;100.00;101004.94;12867405;23;19986;-72
2022/08/31 03:34:11;;;;;;;;;;;;;;;17.97;100.00;100999.91;12866243;23;20383;-72
2022/08/31 03:39:17;;;;;;;;;;;;;;;17.87;100.00;101002.84;12881197;23;20046;-70
2022/08/31 03:44:22;;;;;;;;;;;;;;;17.88;100.00;101005.44;12867060;23;19951;-72
2022/08/31 03:49:25;;;;;;;;;;;;;;;17.96;99.67;101015.72;12865763;23;20017;-72
2022/08/31 03:54:28;;;;;;;;;;;;;;;18.01;99.68;101013.81;12866204;23;19974;-70
2022/08/31 03:59:33;;;;;;;;;;;;;;;18.07;98.78;101009.22;12865928;23;19991;-69
2022/08/31 04:04:36;;;;;;;;;;;;;;;18.10;98.42;101005.66;12866562;23;19920;-73
2022/08/31 04:09:39;;;;;;;;;;;;;;;18.08;98.15;101018.00;12866763;23;19991;-70
2022/08/31 04:14:43;;;;;;;;;;;;;;;18.05;99.59;101018.09;12865917;23;20282;-71
2022/08/31 04:19:46;;;;;;;;;;;;;;;18.10;99.16;101014.38;12866360;23;19920;-73
2022/08/31 04:24:49;;;;;;;;;;;;;;;18.15;97.38;101022.16;12865735;23;19974;-69
2022/08/31 04:29:54;;;;;;;;;;;;;;;18.18;96.62;101030.81;12867008;23;19992;-71
2022/08/31 04:34:57;;;;;;;;;;;;;;;18.27;96.54;101034.91;12865433;23;20255;-70
2022/08/31 04:40:03;;;;;;;;;;;;;;;18.21;96.17;101045.59;12865494;23;19947;-73
2022/08/31 04:45:08;;;;;;;;;;;;;;;18.23;95.90;101047.28;12881327;23;19995;-73
2022/08/31 04:50:12;;;;;;;;;;;;;;;18.13;94.82;101055.50;12865295;23;20363;-75
2022/08/31 04:55:16;;;;;;;;;;;;;;;18.16;95.40;101048.38;12865525;23;19952;-74
2022/08/31 05:00:20;;;;;;;;;;;;;;;18.26;95.08;101055.06;12865335;23;19983;-73
2022/08/31 05:05:23;;;;;;;;;;;;;;;18.29;94.50;101062.84;12868860;23;19920;-73
2022/08/31 05:10:26;;;;;;;;;;;;;;;18.30;94.91;101061.09;12869369;23;19920;-74
2022/08/31 05:15:31;;;;;;;;;;;;;;;18.27;94.36;101056.78;12869445;23;19948;-73
2022/08/31 05:20:34;;;;;;;;;;;;;;;18.30;94.28;101045.31;12869415;23;19995;-75
2022/08/31 05:25:38;;;;;;;;;;;;;;;18.25;94.72;101060.38;12869024;23;19955;-77
2022/08/31 05:30:44;;;;;;;;;;;;;;;18.34;94.75;101057.47;12868867;23;20314;-72
2022/08/31 05:35:47;;;;;;;;;;;;;;;18.32;94.23;101067.19;12884204;23;19924;-73
2022/08/31 05:40:51;;;;;;;;;;;;;;;18.38;94.25;101072.22;12868449;23;20342;-74
2022/08/31 05:45:56;;;;;;;;;;;;;;;18.42;94.10;101074.78;12869117;23;19996;-75
2022/08/31 05:51:00;;;;;;;;;;;;;;;18.42;93.24;101076.53;12868358;23;19944;-70
2022/08/31 05:56:05;;;;;;;;;;;;;;;18.39;92.66;101082.72;12869030;23;19951;-74
2022/08/31 06:01:13;;;;;;;;;;;;;;;18.38;91.32;101080.97;12868557;23;19987;-71
2022/08/31 06:06:17;;;;;;;;;;;;;;;18.43;90.55;101091.38;12883468;23;19943;-72
2022/08/31 06:11:22;;;;;;;;;;;;;;;18.52;90.08;101091.09;12868030;23;20216;-74
2022/08/31 06:16:27;;;;;;;;;;;;;;;18.53;90.34;101102.50;12865782;23;19920;-71
2022/08/31 06:21:32;;;;;;;;;;;;;;;18.56;89.97;101110.28;12868428;23;19962;-73
2022/08/31 06:26:35;;;;;;;;;;;;;;;18.61;89.96;101111.00;12867318;23;20027;-74
2022/08/31 06:31:46;;;;;;;;;;;;;;;18.60;89.48;101112.78;12866162;23;19970;-75
2022/08/31 06:36:49;;;;;;;;;;;;;;;18.63;89.39;101109.19;12876009;23;20248;-76
2022/08/31 06:41:52;;;;;;;;;;;;;;;18.70;88.11;101106.31;12860233;23;20451;-73
2022/08/31 06:46:57;;;;;;;;;;;;;;;18.67;88.32;101108.19;12860785;23;19947;-73
2022/08/31 06:52:00;;;;;;;;;;;;;;;18.63;87.78;101109.19;12859798;23;20231;-73
2022/08/31 06:57:04;;;;;;;;;;;;;;;18.55;87.12;101112.03;12859341;23;20003;-73
2022/08/31 07:02:08;;;;;;;;;;;;;;;18.61;86.45;101100.47;12859803;23;20353;-74
2022/08/31 07:07:12;;;;;;;;;;;;;;;18.63;85.41;101102.16;12859796;23;20020;-74
2022/08/31 07:12:15;;;;;;;;;;;;;;;18.80;85.48;101110.38;12859448;23;20239;-74
2022/08/31 07:17:19;;;;;;;;;;;;;;;18.88;83.25;101112.78;12859020;23;19944;-76
2022/08/31 07:22:22;;;;;;;;;;;;;;;18.95;81.98;101119.53;12859398;23;19920;-73
2022/08/31 07:27:26;;;;;;;;;;;;;;;19.00;80.87;101115.03;12858910;23;20283;-76
2022/08/31 07:32:30;;;;;;;;;;;;;;;19.08;81.25;101097.19;12859959;23;19920;-76
2022/08/31 07:42:54;;;;;;;;;;;;;;;19.19;78.80;101116.13;12876664;23;20043;-73
2022/08/31 07:47:59;;;;;;;;;;;;;;;19.19;78.48;101101.19;12861666;23;19983;-73
2022/08/31 07:53:07;;;;;;;;;;;;;;;19.23;77.29;101110.72;12859720;23;20017;-74
2022/08/31 07:58:14;;;;;;;;;;;;;;;19.25;75.97;101110.66;12874855;23;20080;-72
2022/08/31 08:03:18;;;;;;;;;;;;;;;19.17;75.47;101107.44;12875339;23;19978;-73
2022/08/31 08:08:23;;;;;;;;;;;;;;;19.19;73.86;101109.06;12858723;23;20481;-77
2022/08/31 08:13:26;;;;;;;;;;;;;;;19.26;73.10;101115.88;12859173;23;20382;-77
2022/08/31 08:18:31;;;;;;;;;;;;;;;19.27;73.16;101111.47;12858451;23;19959;-73
2022/08/31 08:23:34;;;;;;;;;;;;;;;19.29;72.54;101123.66;12858306;23;19995;-74
2022/08/31 08:28:37;;;;;;;;;;;;;;;19.49;72.33;101128.28;12857464;23;19939;-73
2022/08/31 08:33:44;;;;;;;;;;;;;;;19.64;72.30;101133.00;12875669;23;19955;-72
2022/08/31 08:38:49;;;;;;;;;;;;;;;19.66;71.10;101133.81;12861668;23;19924;-73
2022/08/31 08:43:53;;;;;;;;;;;;;;;19.72;70.34;101128.38;12862181;23;20007;-74
2022/08/31 08:49:08;;;;;;;;;;;;;;;19.75;68.31;101117.72;12879394;23;19943;-72
2022/08/31 08:54:13;;;;;;;;;;;;;;;19.74;67.68;101130.94;12879196;23;19950;-73
2022/08/31 08:59:17;;;;;;;;;;;;;;;19.80;67.36;101118.41;12862270;23;19955;-74
2022/08/31 09:04:31;;;;;;;;;;;;;;;19.94;66.41;101126.69;12861974;23;19974;-76
2022/08/31 09:09:37;;;;;;;;;;;;;;;20.08;66.21;101123.53;12878964;23;20285;-72
2022/08/31 09:14:47;;;;;;;;;;;;;;;20.27;65.22;101127.25;12861499;23;20021;-74
2022/08/31 09:20:00;;;;;;;;;;;;;;;20.43;63.30;101118.69;12863193;23;19924;-74
2022/08/31 09:25:03;;;;;;;;;;;;;;;20.62;63.09;101119.69;12880354;23;19923;-73
2022/08/31 09:30:07;;;;;;;;;;;;;;;20.76;62.02;101126.22;12878979;23;19995;-73
2022/08/31 09:35:22;;;;;;;;;;;;;;;20.96;61.53;101118.34;12861607;23;19928;-70
2022/08/31 09:40:34;;;;;;;;;;;;;;;21.17;60.01;101101.66;12877359;23;19951;-72
2022/08/31 09:45:40;;;;;;;;;;;;;;;21.50;58.83;101110.81;12876945;23;20010;-74
2022/08/31 09:50:46;;;;;;;;;;;;;;;24.79;50.48;101096.03;12876298;23;19924;-73
2022/08/31 09:56:04;;;;;;;;;;;;;;;27.28;43.80;101078.56;12860628;23;19991;-75
2022/08/31 10:01:13;;;;;;;;;;;;;;;25.34;48.96;101087.50;12860543;23;20279;-76
2022/08/31 10:06:29;;;;;;;;;;;;;;;25.06;50.02;101083.81;12875747;23;20323;-65
2022/08/31 10:11:34;;;;;;;;;;;;;;;24.88;48.93;101084.03;12874785;23;19930;-66
2022/08/31 10:16:41;;;;;;;;;;;;;;;24.84;48.37;101083.34;12860351;23;19995;-67
2022/08/31 10:21:50;;;;;;;;;;;;;;;24.42;49.17;101077.75;12874350;23;20341;-68
2022/08/31 10:26:55;;;;;;;;;;;;;;;24.54;48.59;101079.72;12871922;23;19999;-72
2022/08/31 10:32:01;;;;;;;;;;;;;;;24.59;47.37;101082.97;12874688;23;19951;-72
2022/08/31 10:37:11;;;;;;;;;;;;;;;25.05;46.81;101065.31;12874376;23;19947;-77
2022/08/31 10:42:18;;;;;;;;;;;;;;;24.82;46.56;101064.00;12873919;23;20360;-74
2022/08/31 10:47:22;;;;;;;;;;;;;;;24.45;46.46;101074.97;12873436;23;19948;-73
2022/08/31 10:52:41;;;;;;;;;;;;;;;24.25;47.09;101069.88;12872483;23;19935;-70
2022/08/31 10:57:48;;;;;;;;;;;;;;;24.57;46.57;101070.75;12873643;23;20043;-73
2022/08/31 11:02:58;;;;;;;;;;;;;;;25.34;45.68;101060.91;12874721;23;20287;-71
2022/08/31 11:08:11;;;;;;;;;;;;;;;24.87;45.72;101056.59;12874384;23;20331;-71
2022/08/31 11:13:25;;;;;;;;;;;;;;;24.16;46.95;101061.59;12864141;23;20324;-73
2022/08/31 11:18:52;;;;;;;;;;;;;;;24.86;45.35;101060.22;12877861;23;20323;-72
2022/08/31 11:24:04;;;;;;;;;;;;;;;26.03;43.30;101046.03;12839477;23;19993;-73
2022/08/31 11:29:12;;;;;;;;;;;;;;;26.94;42.60;101041.81;12868761;23;19992;-73
2022/08/31 11:34:23;;;;;;;;;;;;;;;27.79;41.05;101036.81;12875391;23;19991;-74
2022/08/31 11:39:35;;;;;;;;;;;;;;;28.75;40.44;101022.72;12875580;23;19947;-70
2022/08/31 11:44:54;;;;;;;;;;;;;;;28.00;41.47;101018.44;12874480;23;19920;-71
2022/08/31 11:50:01;;;;;;;;;;;;;;;26.68;42.59;101029.34;12862616;23;20238;-72
2022/08/31 11:55:13;;;;;;;;;;;;;;;25.96;43.66;101036.69;12873458;23;20385;-73
2022/08/31 12:00:18;;;;;;;;;;;;;;;26.44;42.58;101016.78;12873004;23;19924;-72
2022/08/31 12:05:36;;;;;;;;;;;;;;;25.94;43.12;101011.97;12865418;23;20251;-73
2022/08/31 12:10:46;;;;;;;;;;;;;;;25.10;44.28;101015.41;12865327;23;20379;-75
2022/08/31 12:16:03;;;;;;;;;;;;;;;26.17;42.31;101016.75;12865985;23;19931;-72
2022/08/31 12:26:48;;;;;;;;;;;;;;;28.78;38.99;100985.06;12866027;23;19955;-72
2022/08/31 12:32:06;;;;;;;;;;;;;;;29.62;37.69;100977.59;12867918;23;19939;-71
2022/08/31 12:37:23;;;;;;;;;;;;;;;30.65;36.14;100968.19;12867620;23;19996;-73
2022/08/31 12:42:26;;;;;;;;;;;;;;;33.32;31.93;100938.63;12885782;23;19962;-70
2022/08/31 12:47:36;;;;;;;;;;;;;;;32.93;32.24;100910.16;12865459;23;19936;-65
2022/08/31 12:52:48;;;;;;;;;;;;;;;34.32;31.81;100926.94;12884666;23;20259;-63
2022/08/31 12:57:58;;;;;;;;;;;;;;;34.85;30.54;100922.38;12886529;23;20003;-66
2022/08/31 13:03:09;;;;;;;;;;;;;;;34.15;31.18;100922.41;12884021;23;20038;-64
2022/08/31 13:08:20;;;;;;;;;;;;;;;33.07;32.72;100940.13;12886628;23;20000;-65
2022/08/31 13:13:24;;;;;;;;;;;;;;;32.21;32.42;100931.19;12865072;23;19995;-63
2022/08/31 13:18:29;;;;;;;;;;;;;;;31.60;33.21;100933.09;12864899;23;19982;-67
2022/08/31 13:23:35;;;;;;;;;;;;;;;31.36;33.95;100935.25;12866439;23;19920;-68
2022/08/31 13:28:38;;;;;;;;;;;;;;;31.07;33.59;100929.72;12868551;23;19920;-67
2022/08/31 13:33:43;;;;;;;;;;;;;;;30.65;34.50;100932.50;12868595;23;19944;-64
2022/08/31 13:38:48;;;;;;;;;;;;;;;29.88;34.72;100931.75;12869028;23;19977;-64
2022/08/31 13:43:57;;;;;;;;;;;;;;;27.94;36.94;100953.00;12888891;23;20007;-65
2022/08/31 13:49:02;;;;;;;;;;;;;;;27.68;37.02;100958.50;12869035;23;19958;-64
2022/08/31 13:54:11;;;;;;;;;;;;;;;27.62;37.04;100956.25;12888964;23;20354;-67
2022/08/31 13:59:29;;;;;;;;;;;;;;;27.00;37.37;100953.47;12868712;23;19950;-62
2022/08/31 14:04:47;;;;;;;;;;;;;;;26.28;37.72;100938.84;12865092;23;20049;-64
2022/08/31 14:09:51;;;;;;;;;;;;;;;26.07;38.17;100954.41;12868360;23;19940;-60
2022/08/31 14:14:56;;;;;;;;;;;;;;;25.96;38.79;100946.22;12868095;23;20295;-66
2022/08/31 14:20:20;;;;;;;;;;;;;;;25.53;40.07;100947.22;12887726;23;20353;-65
2022/08/31 14:25:23;;;;;;;;;;;;;;;25.83;40.09;100945.31;12867047;23;20303;-63
2022/08/31 14:30:26;;;;;;;;;;;;;;;25.28;40.89;100944.34;12886678;23;20002;-65
2022/08/31 14:35:31;;;;;;;;;;;;;;;24.82;42.69;100951.56;12886536;23;19991;-64
2022/08/31 14:40:35;;;;;;;;;;;;;;;24.52;43.86;100961.31;12868769;23;19952;-63
2022/08/31 14:45:39;;;;;;;;;;;;;;;24.24;44.16;100963.81;12886736;23;19951;-66
2022/08/31 14:50:46;;;;;;;;;;;;;;;24.10;45.88;100966.41;12866754;23;20127;-62
2022/08/31 14:55:49;;;;;;;;;;;;;;;24.20;45.79;100957.84;12886683;23;19950;-64
2022/08/31 15:00:52;;;;;;;;;;;;;;;24.47;46.25;100958.06;12866592;23;19920;-65
2022/08/31 15:05:58;;;;;;;;;;;;;;;24.68;45.81;100941.72;12886978;23;19982;-67
2022/08/31 15:11:04;;;;;;;;;;;;;;;24.63;46.30;100943.81;12887568;23;19939;-64
2022/08/31 15:16:11;;;;;;;;;;;;;;;24.30;46.13;100937.78;12866177;23;20339;-68
2022/08/31 15:21:16;;;;;;;;;;;;;;;23.99;47.13;100951.06;12887597;23;20011;-66
2022/08/31 15:26:21;;;;;;;;;;;;;;;23.71;47.77;100957.00;12880136;23;19987;-65
2022/08/31 15:31:26;;;;;;;;;;;;;;;23.50;47.50;100955.56;12887745;23;20267;-66
2022/08/31 15:36:31;;;;;;;;;;;;;;;23.39;49.03;100957.03;12865936;23;20315;-65
2022/08/31 15:41:36;;;;;;;;;;;;;;;23.27;48.73;100949.72;12865989;23;19951;-67
2022/08/31 15:52:05;;;;;;;;;;;;;;;22.99;49.25;100957.41;12886049;23;19990;-65
2022/08/31 15:57:11;;;;;;;;;;;;;;;22.95;50.39;100961.13;12885907;23;19943;-73
2022/08/31 16:02:16;;;;;;;;;;;;;;;22.80;50.11;100963.63;12866123;23;20077;-72
2022/08/31 16:07:22;;;;;;;;;;;;;;;22.69;50.30;100958.00;12886486;23;19947;-72
2022/08/31 16:12:25;;;;;;;;;;;;;;;22.57;49.88;100971.00;12885922;23;19931;-71
2022/08/31 16:17:28;;;;;;;;;;;;;;;22.47;50.14;100970.56;12886062;23;19920;-72
2022/08/31 16:22:33;;;;;;;;;;;;;;;22.51;49.98;100969.47;12865195;23;19958;-68
2022/08/31 16:27:39;;;;;;;;;;;;;;;22.34;50.20;100972.09;12864949;23;20267;-68
2022/08/31 16:32:43;;;;;;;;;;;;;;;22.15;51.16;100971.28;12885439;23;19947;-71
2022/08/31 16:37:50;;;;;;;;;;;;;;;21.92;51.37;100971.50;12886200;23;19948;-68
2022/08/31 16:42:53;;;;;;;;;;;;;;;21.74;51.97;100972.31;12865370;23;19919;-70
2022/08/31 16:53:16;;;;;;;;;;;;;;;21.52;53.50;100976.84;12864519;23;20000;-72
2022/08/31 16:58:23;;;;;;;;;;;;;;;21.50;54.11;100973.44;12888328;23;20214;-71
2022/08/31 17:03:48;;;;;;;;;;;;;;;21.41;55.55;100980.00;12869894;23;19930;-71
2022/08/31 17:08:56;;;;;;;;;;;;;;;21.40;56.26;100983.53;12869725;23;19920;-73
2022/08/31 17:14:00;;;;;;;;;;;;;;;21.31;56.65;100977.81;12869492;23;19947;-72
2022/08/31 17:19:05;;;;;;;;;;;;;;;21.26;57.04;100983.28;12889357;23;20003;-72
2022/08/31 17:24:13;;;;;;;;;;;;;;;21.23;57.00;100983.44;12888966;23;19923;-73
2022/08/31 17:29:17;;;;;;;;;;;;;;;21.17;57.29;100990.78;12870934;23;20278;-74
2022/08/31 17:34:21;;;;;;;;;;;;;;;21.06;57.61;101000.94;12888644;23;19920;-74
2022/08/31 17:39:26;;;;;;;;;;;;;;;20.96;58.27;101012.78;12889005;23;20235;-75
2022/08/31 17:44:30;;;;;;;;;;;;;;;20.94;58.89;101011.97;12869286;23;19920;-74
2022/08/31 17:49:33;;;;;;;;;;;;;;;20.85;58.84;101015.00;12889068;23;19931;-73
2022/08/31 17:54:41;;;;;;;;;;;;;;;20.79;58.63;101008.22;12889844;23;20274;-72
2022/08/31 17:59:47;;;;;;;;;;;;;;;20.71;57.13;101012.09;12869069;23;19947;-75
2022/08/31 18:04:51;;;;;;;;;;;;;;;20.65;56.83;101011.41;12868206;23;20276;-76
2022/08/31 18:09:56;;;;;;;;;;;;;;;20.62;56.39;101008.06;12867933;23;19951;-75
2022/08/31 18:14:59;;;;;;;;;;;;;;;20.62;56.38;101013.31;12868184;23;20394;-73
2022/08/31 18:20:04;;;;;;;;;;;;;;;20.57;56.40;101021.41;12867814;23;20326;-73
2022/08/31 18:25:09;;;;;;;;;;;;;;;20.52;57.02;101031.28;12887067;23;19957;-74
2022/08/31 18:30:14;;;;;;;;;;;;;;;20.51;57.47;101044.53;12867712;23;20001;-74
2022/08/31 18:35:18;;;;;;;;;;;;;;;20.52;57.82;101036.56;12867418;23;19931;-76
2022/08/31 18:45:47;;;;;;;;;;;;;;;20.44;59.26;101035.16;12887846;23;20022;-74
2022/08/31 18:50:50;;;;;;;;;;;;;;;20.43;59.47;101038.72;12887480;23;19998;-71
2022/08/31 18:55:54;;;;;;;;;;;;;;;20.38;59.42;101043.31;12887575;23;19999;-71
2022/08/31 19:00:57;;;;;;;;;;;;;;;20.33;60.18;101032.06;12887253;23;19991;-72
2022/08/31 19:06:01;;;;;;;;;;;;;;;20.29;60.58;101044.53;12866745;23;20009;-74
2022/08/31 19:11:10;;;;;;;;;;;;;;;20.24;60.43;101043.00;12887154;23;20036;-72
2022/08/31 19:16:15;;;;;;;;;;;;;;;20.21;60.88;101033.41;12866927;23;19931;-71
2022/08/31 19:21:20;;;;;;;;;;;;;;;20.20;61.12;101034.34;12886377;23;19920;-71
2022/08/31 19:26:26;;;;;;;;;;;;;;;20.12;61.72;101035.53;12880555;23;19995;-73
2022/08/31 19:31:29;;;;;;;;;;;;;;;20.04;62.80;101030.53;12886887;23;19923;-74
2022/08/31 19:36:33;;;;;;;;;;;;;;;20.06;63.00;101038.38;12886962;23;20300;-72
2022/08/31 19:41:39;;;;;;;;;;;;;;;19.98;63.52;101032.53;12886843;23;19944;-72
2022/08/31 19:46:51;;;;;;;;;;;;;;;19.94;63.56;101029.16;12865946;23;19954;-73
2022/08/31 19:51:58;;;;;;;;;;;;;;;19.83;63.97;101041.88;12886957;23;20311;-75
2022/08/31 19:57:05;;;;;;;;;;;;;;;19.81;64.62;101030.53;12886226;23;19950;-69
2022/08/31 20:02:08;;;;;;;;;;;;;;;19.59;66.06;101039.31;12885746;23;20330;-71
2022/08/31 20:07:13;;;;;;;;;;;;;;;19.55;65.92;101039.38;12885993;23;19951;-72
2022/08/31 20:12:18;;;;;;;;;;;;;;;19.42;67.46;101042.50;12886035;23;19959;-71
2022/08/31 20:17:22;;;;;;;;;;;;;;;19.49;67.68;101036.13;12886554;23;19927;-71
2022/08/31 20:22:25;;;;;;;;;;;;;;;19.52;67.66;101036.00;12886114;23;19974;-70
2022/08/31 20:27:33;;;;;;;;;;;;;;;19.45;67.97;101034.50;12875078;23;19995;-70
2022/08/31 20:32:37;;;;;;;;;;;;;;;19.40;68.39;101041.69;12887435;23;19950;-73
2022/08/31 20:37:40;;;;;;;;;;;;;;;19.38;69.13;101054.94;12890189;23;19998;-72
2022/08/31 20:42:44;;;;;;;;;;;;;;;19.34;68.89;101053.34;12890804;23;20390;-71
2022/08/31 20:53:07;;;;;;;;;;;;;;;19.23;70.08;101049.31;12889236;23;19920;-71
2022/08/31 20:58:12;;;;;;;;;;;;;;;19.15;70.30;101046.06;12889425;23;19954;-74
2022/08/31 21:03:15;;;;;;;;;;;;;;;19.01;69.73;101049.19;12889215;23;20010;-73
2022/08/31 21:08:19;;;;;;;;;;;;;;;18.91;70.58;101054.78;12889382;23;19974;-71
2022/08/31 21:13:24;;;;;;;;;;;;;;;18.86;71.29;101061.97;12889503;23;20081;-70
2022/08/31 21:18:28;;;;;;;;;;;;;;;18.86;70.99;101065.44;12889377;23;19947;-72
2022/08/31 21:23:31;;;;;;;;;;;;;;;18.78;71.81;101066.59;12889437;23;19947;-70
2022/08/31 21:28:37;;;;;;;;;;;;;;;18.72;71.95;101064.19;12873847;23;19919;-71
2022/08/31 21:33:40;;;;;;;;;;;;;;;18.64;72.05;101056.53;12889401;23;20402;-71
2022/08/31 21:38:43;;;;;;;;;;;;;;;18.63;72.15;101070.59;12890188;23;19944;-69
2022/08/31 21:43:51;;;;;;;;;;;;;;;18.54;72.42;101076.16;12888618;23;19957;-73
2022/08/31 21:48:55;;;;;;;;;;;;;;;18.52;72.05;101074.50;12889719;23;19995;-68
2022/08/31 21:54:00;;;;;;;;;;;;;;;18.39;71.90;101079.22;12889414;23;20296;-68
2022/08/31 21:59:05;;;;;;;;;;;;;;;18.32;72.34;101083.81;12868457;23;19931;-69
2022/08/31 22:04:09;;;;;;;;;;;;;;;18.34;71.69;101078.50;12863859;23;19955;-71
2022/08/31 22:09:13;;;;;;;;;;;;;;;18.29;70.99;101085.66;12862141;23;19928;-70
2022/08/31 22:14:19;;;;;;;;;;;;;;;18.22;70.97;101078.88;12860893;23;20004;-72
2022/08/31 22:19:24;;;;;;;;;;;;;;;18.12;71.43;101078.28;12861302;23;19994;-71
2022/08/31 22:24:28;;;;;;;;;;;;;;;18.14;70.88;101091.34;12861563;23;20007;-71
2022/08/31 22:29:34;;;;;;;;;;;;;;;18.19;70.66;101090.31;12861196;23;19928;-71
2022/08/31 22:34:38;;;;;;;;;;;;;;;18.18;70.19;101086.00;12881218;23;20294;-71
2022/08/31 22:39:42;;;;;;;;;;;;;;;18.08;70.69;101079.28;12860315;23;20015;-72
2022/08/31 22:44:46;;;;;;;;;;;;;;;18.06;71.34;101077.59;12860407;23;19923;-72
2022/08/31 22:49:49;;;;;;;;;;;;;;;17.95;72.07;101075.28;12861528;23;19950;-72
2022/08/31 22:54:52;;;;;;;;;;;;;;;18.03;72.10;101075.91;12860273;23;19999;-70
2022/08/31 22:59:57;;;;;;;;;;;;;;;17.93;71.77;101069.19;12859754;23;20006;-72
2022/08/31 23:05:02;;;;;;;;;;;;;;;17.83;72.20;101070.38;12860747;23;19967;-73
2022/08/31 23:10:08;;;;;;;;;;;;;;;17.74;72.20;101073.25;12862267;23;19998;-73
2022/08/31 23:15:14;;;;;;;;;;;;;;;17.62;72.58;101072.75;12887544;23;19951;-72
2022/08/31 23:20:22;;;;;;;;;;;;;;;17.55;72.93;101082.53;12887825;23;19987;-72
2022/08/31 23:25:26;;;;;;;;;;;;;;;17.46;72.94;101081.91;12884630;23;20003;-71
2022/08/31 23:30:30;;;;;;;;;;;;;;;17.47;73.02;101078.38;12867937;23;19996;-72
2022/08/31 23:35:34;;;;;;;;;;;;;;;17.43;73.49;101074.13;12866637;23;19991;-69
2022/08/31 23:40:37;;;;;;;;;;;;;;;17.34;73.48;101067.34;12866626;23;20327;-76
2022/08/31 23:45:41;;;;;;;;;;;;;;;17.25;74.16;101078.94;12866271;23;19994;-73
2022/08/31 23:50:45;;;;;;;;;;;;;;;17.14;74.38;101073.09;12866465;23;19951;-71
2022/08/31 23:55:48;;;;;;;;;;;;;;;17.14;74.15;101073.09;12866348;23;19994;-69
